createdAt,value
2022-12-26T00:00:30.358Z,14.52
2022-12-26T00:02:57.284Z,18.58
2022-12-26T00:05:24.155Z,15.40
2022-12-26T00:07:51.175Z,13.68
2022-12-26T00:10:18.030Z,13.88
2022-12-26T00:12:44.901Z,13.73
2022-12-26T00:15:11.736Z,17.80
2022-12-26T00:17:38.512Z,16.65
2022-12-26T00:20:05.990Z,15.95
2022-12-26T00:22:32.848Z,17.33
2022-12-26T00:24:59.621Z,18.15
2022-12-26T00:27:26.404Z,16.45
2022-12-26T00:29:53.170Z,13.65
2022-12-26T00:32:20.166Z,15.98
2022-12-26T00:34:47.116Z,20.27
2022-12-26T00:37:13.858Z,13.73
2022-12-26T00:39:40.795Z,13.60
2022-12-26T00:42:07.594Z,14.68
2022-12-26T00:44:34.332Z,15.98
2022-12-26T00:47:01.170Z,18.67
2022-12-26T00:49:28.045Z,14.95
2022-12-26T00:51:54.802Z,16.77
2022-12-26T00:54:21.615Z,18.02
2022-12-26T00:56:48.376Z,14.73
2022-12-26T00:59:15.313Z,14.10
2022-12-26T01:01:42.374Z,15.13
2022-12-26T01:04:09.910Z,15.93
2022-12-26T01:06:36.716Z,17.65
2022-12-26T01:09:03.834Z,17.35
2022-12-26T01:11:42.579Z,19.20
2022-12-26T01:14:12.932Z,19.15
2022-12-26T01:16:40.805Z,14.77
2022-12-26T01:19:07.956Z,14.60
2022-12-26T01:21:34.834Z,15.38
2022-12-26T01:24:01.784Z,16.25
2022-12-26T01:26:28.568Z,16.83
2022-12-26T01:28:55.379Z,14.95
2022-12-26T01:31:23.234Z,14.25
2022-12-26T01:33:51.340Z,17.20
2022-12-26T01:36:19.012Z,15.40
2022-12-26T01:38:46.594Z,16.00
2022-12-26T01:41:17.218Z,17.63
2022-12-26T01:44:26.788Z,18.58
2022-12-26T01:46:53.644Z,19.30
2022-12-26T01:49:34.170Z,15.27
2022-12-26T01:52:09.681Z,19.02
2022-12-26T01:54:42.735Z,15.73
2022-12-26T01:57:24.180Z,16.55
2022-12-26T01:59:52.577Z,20.52
2022-12-26T02:02:22.341Z,15.43
2022-12-26T02:05:10.647Z,18.02
2022-12-26T02:07:40.591Z,20.50
2022-12-26T02:10:11.277Z,20.33
2022-12-26T02:12:39.356Z,17.40
2022-12-26T02:15:27.283Z,20.67
2022-12-26T02:17:54.137Z,18.90
2022-12-26T02:20:27.507Z,18.77
2022-12-26T02:23:08.514Z,21.85
2022-12-26T02:26:12.307Z,20.30
2022-12-26T02:29:39.203Z,19.95
2022-12-26T02:32:17.548Z,17.92
2022-12-26T02:35:03.105Z,20.58
2022-12-26T02:37:36.258Z,20.38
2022-12-26T02:40:33.008Z,21.40
2022-12-26T02:43:10.417Z,18.23
2022-12-26T02:46:20.706Z,18.42
2022-12-26T02:49:05.995Z,20.45
2022-12-26T02:52:10.185Z,20.85
2022-12-26T02:55:25.121Z,19.85
2022-12-26T02:58:25.593Z,23.05
2022-12-26T03:01:17.537Z,21.25
2022-12-26T03:04:22.576Z,20.60
2022-12-26T03:07:16.597Z,18.38
2022-12-26T03:10:05.098Z,21.92
2022-12-26T03:13:02.198Z,19.80
2022-12-26T03:15:51.587Z,19.95
2022-12-26T03:18:19.511Z,18.67
2022-12-26T03:21:07.739Z,26.05
2022-12-26T03:23:36.724Z,18.88
2022-12-26T03:26:29.813Z,21.92
2022-12-26T03:29:18.990Z,21.08
2022-12-26T03:31:46.256Z,22.95
2022-12-26T03:34:18.820Z,19.38
2022-12-26T03:37:09.547Z,21.40
2022-12-26T03:40:19.290Z,20.98
2022-12-26T03:43:22.532Z,19.00
2022-12-26T03:46:26.647Z,18.30
2022-12-26T03:49:41.186Z,18.27
2022-12-26T03:55:41.380Z,23.38
2022-12-26T03:58:30.836Z,19.50
2022-12-26T04:01:18.367Z,18.45
2022-12-26T04:04:05.019Z,20.90
2022-12-26T04:07:00.161Z,22.23
2022-12-26T04:10:08.857Z,21.83
2022-12-26T04:12:57.203Z,19.42
2022-12-26T04:16:02.635Z,19.17
2022-12-26T04:19:31.424Z,20.35
2022-12-26T04:22:30.688Z,26.25
2022-12-26T04:25:50.252Z,17.55
2022-12-26T04:28:37.767Z,17.17
2022-12-26T04:31:49.365Z,20.40
2022-12-26T04:35:05.305Z,20.58
2022-12-26T04:37:53.087Z,21.98
2022-12-26T04:40:45.525Z,19.10
2022-12-26T04:43:48.926Z,22.05
2022-12-26T04:46:20.720Z,20.27
2022-12-26T04:49:09.204Z,21.23
2022-12-26T04:51:36.491Z,19.52
2022-12-26T04:54:03.807Z,21.23
2022-12-26T04:56:30.827Z,23.33
2022-12-26T04:58:57.653Z,20.30
2022-12-26T05:01:43.005Z,21.30
2022-12-26T05:04:33.253Z,18.95
2022-12-26T05:07:20.675Z,20.42
2022-12-26T05:09:51.944Z,22.80
2022-12-26T05:12:19.272Z,22.70
2022-12-26T05:14:46.289Z,21.95
2022-12-26T05:17:32.851Z,25.25
2022-12-26T05:20:18.099Z,20.80
2022-12-26T05:23:05.134Z,24.55
2022-12-26T05:25:53.575Z,28.15
2022-12-26T05:28:39.313Z,18.83
2022-12-26T05:31:06.961Z,22.60
2022-12-26T05:33:52.263Z,20.73
2022-12-26T05:36:21.869Z,19.92
2022-12-26T05:38:49.194Z,20.33
2022-12-26T05:41:17.137Z,19.65
2022-12-26T05:43:44.708Z,18.80
2022-12-26T05:46:11.481Z,22.30
2022-12-26T05:48:38.326Z,18.55
2022-12-26T05:51:05.680Z,20.17
2022-12-26T05:53:33.123Z,19.38
2022-12-26T05:56:08.264Z,18.58
2022-12-26T05:58:35.171Z,16.25
2022-12-26T06:01:08.526Z,21.35
2022-12-26T06:03:35.882Z,18.33
2022-12-26T06:06:02.926Z,20.00
2022-12-26T06:08:29.971Z,21.48
2022-12-26T06:10:56.754Z,19.17
2022-12-26T06:13:23.695Z,20.73
2022-12-26T06:15:50.516Z,19.02
2022-12-26T06:18:17.501Z,21.67
2022-12-26T06:20:44.996Z,21.27
2022-12-26T06:23:11.865Z,25.52
2022-12-26T06:25:38.710Z,21.17
2022-12-26T06:28:05.575Z,19.05
2022-12-26T06:30:32.385Z,17.27
2022-12-26T06:33:00.005Z,18.45
2022-12-26T06:35:26.997Z,19.98
2022-12-26T06:37:53.779Z,18.85
2022-12-26T06:40:20.637Z,18.33
2022-12-26T06:42:47.441Z,23.02
2022-12-26T06:45:14.406Z,19.58
2022-12-26T06:47:41.259Z,21.10
2022-12-26T06:50:08.374Z,23.65
2022-12-26T06:52:37.463Z,22.67
2022-12-26T06:55:04.976Z,22.60
2022-12-26T06:57:31.897Z,22.45
2022-12-26T06:59:58.692Z,19.77
2022-12-26T07:02:25.482Z,20.08
2022-12-26T07:04:52.321Z,23.50
2022-12-26T07:07:19.056Z,20.52
2022-12-26T07:09:45.912Z,24.35
2022-12-26T07:12:12.702Z,22.33
2022-12-26T07:14:39.516Z,19.92
2022-12-26T07:17:06.303Z,20.05
2022-12-26T07:19:33.167Z,22.08
2022-12-26T07:21:59.993Z,22.33
2022-12-26T07:24:26.731Z,25.80
2022-12-26T07:26:53.560Z,22.60
2022-12-26T07:29:22.004Z,21.52
2022-12-26T07:31:49.296Z,22.75
2022-12-26T07:34:16.341Z,28.70
2022-12-26T07:36:43.294Z,23.30
2022-12-26T07:39:12.395Z,21.58
2022-12-26T07:41:57.621Z,25.35
2022-12-26T07:44:26.094Z,24.75
2022-12-26T07:46:53.069Z,22.88
2022-12-26T07:49:19.911Z,24.23
2022-12-26T07:51:46.769Z,27.60
2022-12-26T07:54:14.687Z,25.80
2022-12-26T07:56:42.098Z,26.80
2022-12-26T07:59:15.520Z,25.80
2022-12-26T08:04:11.122Z,28.02
2022-12-26T08:06:38.893Z,26.70
2022-12-26T08:09:06.149Z,32.45
2022-12-26T08:11:35.483Z,27.48
2022-12-26T08:14:02.885Z,29.35
2022-12-26T08:16:31.540Z,30.33
2022-12-26T08:18:58.412Z,30.00
2022-12-26T08:21:25.274Z,27.67
2022-12-26T08:23:52.149Z,32.20
2022-12-26T08:26:22.777Z,29.38
2022-12-26T08:28:51.295Z,29.27
2022-12-26T08:31:19.646Z,30.27
2022-12-26T08:33:46.554Z,28.65
2022-12-26T08:36:17.010Z,29.83
2022-12-26T08:38:45.492Z,29.65
2022-12-26T08:41:12.360Z,30.40
2022-12-26T08:44:25.253Z,30.58
2022-12-26T08:46:25.886Z,31.83
2022-12-26T08:48:52.835Z,29.00
2022-12-26T08:51:22.545Z,29.75
2022-12-26T08:53:50.518Z,29.27
2022-12-26T08:56:21.814Z,31.20
2022-12-26T08:58:49.797Z,32.22
2022-12-26T09:01:19.918Z,32.67
2022-12-26T09:03:47.433Z,34.80
2022-12-26T09:06:15.647Z,31.23
2022-12-26T09:08:43.274Z,33.63
2022-12-26T09:11:15.908Z,35.13
2022-12-26T09:13:43.584Z,39.22
2022-12-26T09:16:17.853Z,37.67
2022-12-26T09:18:46.221Z,35.25
2022-12-26T09:21:15.556Z,38.47
2022-12-26T09:23:43.431Z,38.38
2022-12-26T09:26:14.171Z,40.28
2022-12-26T09:28:41.440Z,38.72
2022-12-26T09:31:13.885Z,41.50
2022-12-26T09:33:40.909Z,39.80
2022-12-26T09:36:14.484Z,37.55
2022-12-26T09:38:46.093Z,41.15
2022-12-26T09:41:48.528Z,37.40
2022-12-26T09:44:27.657Z,35.22
2022-12-26T09:47:24.967Z,38.38
2022-12-26T09:50:01.005Z,37.70
2022-12-26T09:52:50.690Z,40.17
2022-12-26T09:55:36.139Z,39.53
2022-12-26T09:58:14.941Z,36.92
2022-12-26T10:00:51.842Z,35.05
2022-12-26T10:03:18.769Z,40.58
2022-12-26T10:06:07.229Z,34.47
2022-12-26T10:09:12.523Z,36.30
2022-12-26T10:12:24.479Z,34.25
2022-12-26T10:15:03.571Z,37.00
2022-12-26T10:17:36.825Z,35.65
2022-12-26T10:20:16.677Z,36.20
2022-12-26T10:23:03.509Z,35.60
2022-12-26T10:25:45.846Z,38.17
2022-12-26T10:28:46.192Z,35.13
2022-12-26T10:31:27.810Z,37.65
2022-12-26T10:33:58.577Z,36.17
2022-12-26T10:36:44.156Z,38.35
2022-12-26T10:39:41.529Z,36.67
2022-12-26T10:42:17.231Z,37.20
2022-12-26T10:44:44.412Z,32.30
2022-12-26T10:47:23.759Z,38.95
2022-12-26T10:49:50.607Z,39.00
2022-12-26T10:52:21.369Z,32.42
2022-12-26T10:55:29.683Z,34.08
2022-12-26T10:57:44.240Z,35.72
2022-12-26T11:00:37.705Z,33.75
2022-12-26T11:03:13.727Z,33.50
2022-12-26T11:06:08.175Z,32.63
2022-12-26T11:08:51.902Z,31.58
2022-12-26T11:11:23.765Z,32.08
2022-12-26T11:14:02.332Z,32.97
2022-12-26T11:16:40.033Z,35.85
2022-12-26T11:19:07.026Z,31.35
2022-12-26T11:21:34.444Z,33.17
2022-12-26T11:24:21.668Z,33.30
2022-12-26T11:26:48.840Z,36.15
2022-12-26T11:29:21.442Z,33.80
2022-12-26T11:31:59.443Z,31.60
2022-12-26T11:34:47.732Z,35.38
2022-12-26T11:37:37.119Z,36.25
2022-12-26T11:40:05.019Z,35.22
2022-12-26T11:42:32.122Z,33.25
2022-12-26T11:45:12.325Z,35.03
2022-12-26T11:47:46.249Z,37.00
2022-12-26T11:50:21.164Z,34.95
2022-12-26T11:52:56.577Z,35.60
2022-12-26T11:55:29.712Z,35.75
2022-12-26T11:58:21.811Z,34.78
2022-12-26T12:00:51.859Z,35.50
2022-12-26T12:03:48.645Z,34.45
2022-12-26T12:06:44.190Z,33.67
2022-12-26T12:09:42.117Z,33.05
2022-12-26T12:12:42.692Z,33.08
2022-12-26T12:15:31.465Z,31.42
2022-12-26T12:18:33.322Z,32.63
2022-12-26T12:21:36.644Z,33.15
2022-12-26T12:24:32.585Z,33.65
2022-12-26T12:27:13.511Z,30.33
2022-12-26T12:29:49.343Z,33.25
2022-12-26T12:32:29.248Z,34.45
2022-12-26T12:35:01.606Z,31.77
2022-12-26T12:37:53.394Z,31.48
2022-12-26T12:40:42.391Z,31.15
2022-12-26T12:43:23.090Z,31.48
2022-12-26T12:45:49.818Z,36.15
2022-12-26T12:48:45.808Z,34.60
2022-12-26T12:51:37.313Z,31.65
2022-12-26T12:54:39.446Z,31.13
2022-12-26T12:57:36.955Z,34.78
2022-12-26T13:00:24.135Z,34.70
2022-12-26T13:03:12.880Z,28.67
2022-12-26T13:06:01.060Z,30.25
2022-12-26T13:08:51.665Z,33.38
2022-12-26T13:11:38.231Z,36.25
2022-12-26T13:14:11.727Z,35.53
2022-12-26T13:16:43.741Z,35.38
2022-12-26T13:19:26.331Z,33.95
2022-12-26T13:21:57.744Z,30.58
2022-12-26T13:24:35.983Z,28.45
2022-12-26T13:27:24.217Z,29.63
2022-12-26T13:29:52.503Z,31.42
2022-12-26T13:32:33.379Z,32.17
2022-12-26T13:35:02.199Z,32.17
2022-12-26T13:37:36.331Z,30.60
2022-12-26T13:40:10.906Z,32.83
2022-12-26T13:43:04.339Z,31.95
2022-12-26T13:45:58.169Z,30.60
2022-12-26T13:48:30.436Z,36.83
2022-12-26T13:51:00.396Z,31.08
2022-12-26T13:53:37.208Z,31.45
2022-12-26T13:56:45.878Z,31.50
2022-12-26T13:59:30.604Z,30.10
2022-12-26T14:03:15.992Z,33.03
2022-12-26T14:05:57.982Z,31.58
2022-12-26T14:08:36.778Z,32.53
2022-12-26T14:11:28.312Z,32.42
2022-12-26T14:14:48.253Z,30.25
2022-12-26T14:17:57.898Z,29.13
2022-12-26T14:20:49.656Z,28.90
2022-12-26T14:23:28.402Z,31.90
2022-12-26T14:26:05.186Z,33.88
2022-12-26T14:29:08.045Z,34.10
2022-12-26T14:31:40.951Z,30.58
2022-12-26T14:34:49.854Z,33.42
2022-12-26T14:37:28.625Z,35.30
2022-12-26T14:40:06.137Z,32.30
2022-12-26T14:43:11.082Z,31.98
2022-12-26T14:45:38.448Z,35.40
2022-12-26T14:48:17.440Z,36.88
2022-12-26T14:50:47.279Z,35.83
2022-12-26T14:53:28.825Z,39.35
2022-12-26T14:56:19.256Z,39.40
2022-12-26T14:58:50.462Z,36.95
2022-12-26T15:01:18.097Z,38.90
2022-12-26T15:04:12.123Z,38.55
2022-12-26T15:07:04.363Z,38.53
2022-12-26T15:10:08.395Z,40.80
2022-12-26T15:13:09.111Z,41.20
2022-12-26T15:16:08.311Z,44.33
2022-12-26T15:18:59.448Z,45.13
2022-12-26T15:21:56.505Z,42.45
2022-12-26T15:25:17.662Z,43.35
2022-12-26T15:27:36.196Z,46.38
2022-12-26T15:30:39.802Z,45.08
2022-12-26T15:33:22.134Z,46.15
2022-12-26T15:36:13.518Z,44.88
2022-12-26T15:39:05.233Z,43.13
2022-12-26T15:41:43.962Z,47.00
2022-12-26T15:44:48.534Z,42.55
2022-12-26T15:47:43.167Z,47.42
2022-12-26T15:50:31.300Z,53.28
2022-12-26T15:53:21.055Z,48.38
2022-12-26T15:56:22.126Z,49.10
2022-12-26T15:58:51.922Z,56.47
2022-12-26T16:01:39.048Z,49.05
2022-12-26T16:04:28.839Z,53.10
2022-12-26T16:07:51.919Z,59.80
2022-12-26T16:10:32.417Z,68.20
2022-12-26T16:13:11.651Z,75.05
2022-12-26T16:15:48.910Z,74.07
2022-12-26T16:18:36.180Z,75.78
2022-12-26T16:21:25.680Z,77.93
2022-12-26T16:23:54.125Z,85.30
2022-12-26T16:26:34.017Z,79.68
2022-12-26T16:29:01.583Z,75.85
2022-12-26T16:31:31.419Z,78.78
2022-12-26T16:33:59.853Z,73.38
2022-12-26T16:36:35.749Z,70.50
2022-12-26T16:39:08.316Z,66.68
2022-12-26T16:41:45.678Z,63.90
2022-12-26T16:44:35.936Z,63.25
2022-12-26T16:47:06.503Z,58.75
2022-12-26T16:49:34.857Z,60.40
2022-12-26T16:52:01.900Z,56.88
2022-12-26T16:54:37.443Z,52.63
2022-12-26T16:57:19.676Z,58.63
2022-12-26T16:59:57.137Z,57.50
2022-12-26T17:02:35.312Z,52.58
2022-12-26T17:05:21.896Z,60.00
2022-12-26T17:07:50.862Z,60.20
2022-12-26T17:10:21.826Z,60.97
2022-12-26T17:12:49.179Z,58.33
2022-12-26T17:15:30.695Z,54.65
2022-12-26T17:18:21.783Z,54.25
2022-12-26T17:20:48.537Z,46.22
2022-12-26T17:23:34.640Z,48.20
2022-12-26T17:26:21.726Z,41.00
2022-12-26T17:28:48.657Z,42.80
2022-12-26T17:31:40.763Z,44.70
2022-12-26T17:34:31.434Z,47.88
2022-12-26T17:37:20.269Z,40.85
2022-12-26T17:40:02.750Z,40.22
2022-12-26T17:42:38.591Z,39.00
2022-12-26T17:45:05.825Z,34.70
2022-12-26T17:47:32.732Z,34.28
2022-12-26T17:49:59.641Z,34.70
2022-12-26T17:52:31.432Z,33.42
2022-12-26T17:54:59.798Z,34.58
2022-12-26T17:57:29.143Z,39.45
2022-12-26T17:59:57.317Z,34.78
2022-12-26T18:02:24.525Z,36.33
2022-12-26T18:04:51.687Z,35.83
2022-12-26T18:07:31.095Z,35.63
2022-12-26T18:10:02.025Z,32.72
2022-12-26T18:12:30.292Z,34.05
2022-12-26T18:15:01.715Z,34.97
2022-12-26T18:17:33.510Z,32.65
2022-12-26T18:20:05.957Z,38.28
2022-12-26T18:22:32.702Z,37.63
2022-12-26T18:24:59.853Z,39.40
2022-12-26T18:27:35.007Z,36.20
2022-12-26T18:30:02.109Z,35.53
2022-12-26T18:32:33.557Z,39.65
2022-12-26T18:35:00.862Z,40.15
2022-12-26T18:37:29.613Z,35.45
2022-12-26T18:39:56.749Z,37.78
2022-12-26T18:42:23.981Z,40.72
2022-12-26T18:44:50.736Z,35.45
2022-12-26T18:47:20.544Z,40.95
2022-12-26T18:49:47.841Z,39.78
2022-12-26T18:52:17.942Z,37.60
2022-12-26T18:54:45.211Z,36.97
2022-12-26T18:57:18.918Z,34.55
2022-12-26T18:59:48.691Z,32.08
2022-12-26T19:02:19.552Z,34.05
2022-12-26T19:04:48.613Z,36.22
2022-12-26T19:07:17.284Z,37.03
2022-12-26T19:09:46.985Z,34.63
2022-12-26T19:12:15.498Z,34.25
2022-12-26T19:14:44.181Z,36.38
2022-12-26T19:17:11.185Z,36.53
2022-12-26T19:19:37.954Z,36.25
2022-12-26T19:22:04.882Z,35.50
2022-12-26T19:24:31.724Z,36.65
2022-12-26T19:26:58.603Z,36.25
2022-12-26T19:29:25.373Z,36.53
2022-12-26T19:31:52.332Z,33.10
2022-12-26T19:34:19.220Z,30.48
2022-12-26T19:36:46.124Z,37.53
2022-12-26T19:39:12.943Z,36.85
2022-12-26T19:41:39.892Z,33.33
2022-12-26T19:44:06.752Z,33.15
2022-12-26T19:46:34.521Z,36.92
2022-12-26T19:49:03.645Z,34.83
2022-12-26T19:51:30.838Z,37.80
2022-12-26T19:53:57.886Z,36.58
2022-12-26T19:56:27.471Z,37.47
2022-12-26T19:58:56.770Z,39.92
2022-12-26T20:01:26.743Z,36.40
2022-12-26T20:03:58.751Z,34.35
2022-12-26T20:06:28.043Z,41.00
2022-12-26T20:09:01.136Z,35.30
2022-12-26T20:11:33.720Z,39.47
2022-12-26T20:14:01.999Z,38.57
2022-12-26T20:17:03.714Z,42.40
2022-12-26T20:19:17.177Z,40.42
2022-12-26T20:21:44.040Z,40.25
2022-12-26T20:24:11.489Z,41.40
2022-12-26T20:26:38.937Z,40.97
2022-12-26T20:29:05.763Z,39.97
2022-12-26T20:31:33.778Z,39.28
2022-12-26T20:34:01.001Z,37.35
2022-12-26T20:36:32.515Z,39.95
2022-12-26T20:39:01.481Z,37.67
2022-12-26T20:41:29.592Z,39.35
2022-12-26T20:43:57.011Z,40.50
2022-12-26T20:46:27.742Z,40.42
2022-12-26T20:48:55.210Z,39.70
2022-12-26T20:51:31.708Z,38.97
2022-12-26T20:54:03.928Z,39.03
2022-12-26T20:56:30.795Z,39.20
2022-12-26T20:58:59.622Z,38.70
2022-12-26T21:01:27.877Z,36.47
2022-12-26T21:03:55.994Z,38.15
2022-12-26T21:06:30.183Z,31.40
2022-12-26T21:08:57.863Z,29.50
2022-12-26T21:11:37.989Z,26.42
2022-12-26T21:14:07.944Z,25.30
2022-12-26T21:16:44.516Z,30.27
2022-12-26T21:19:15.324Z,34.42
2022-12-26T21:21:45.323Z,31.55
2022-12-26T21:24:15.861Z,34.05
2022-12-26T21:26:43.640Z,32.65
2022-12-26T21:29:14.146Z,39.05
2022-12-26T21:31:41.104Z,32.33
2022-12-26T21:34:08.964Z,38.00
2022-12-26T21:36:36.113Z,31.33
2022-12-26T21:39:08.086Z,30.65
2022-12-26T21:41:35.416Z,21.95
2022-12-26T21:44:02.338Z,27.05
2022-12-26T21:46:29.200Z,10.02
2022-12-26T21:48:56.031Z,8.27
2022-12-26T21:51:27.103Z,7.70
2022-12-26T21:54:13.818Z,6.93
2022-12-26T21:56:40.570Z,6.00
2022-12-26T21:59:27.187Z,4.47
2022-12-26T22:01:54.147Z,3.38
2022-12-26T22:04:20.915Z,4.35
2022-12-26T22:06:49.586Z,3.95
2022-12-26T22:09:17.389Z,4.32
2022-12-26T22:12:04.238Z,3.67
2022-12-26T22:14:31.307Z,4.72
2022-12-26T22:16:58.470Z,4.50
2022-12-26T22:19:26.268Z,4.18
2022-12-26T22:21:54.561Z,4.75
2022-12-26T22:24:21.949Z,4.88
2022-12-26T22:26:49.221Z,4.03
2022-12-26T22:29:16.135Z,5.47
2022-12-26T22:31:43.066Z,4.93
2022-12-26T22:34:14.920Z,6.18
2022-12-26T22:36:42.873Z,7.30
2022-12-26T22:39:13.791Z,4.43
2022-12-26T22:41:40.979Z,4.93
2022-12-26T22:44:12.331Z,4.47
2022-12-26T22:46:39.320Z,5.68
2022-12-26T22:49:06.191Z,6.90
2022-12-26T22:51:33.235Z,5.20
2022-12-26T22:54:01.806Z,7.03
2022-12-26T22:56:29.663Z,5.32
2022-12-26T22:59:00.567Z,3.67
2022-12-26T23:01:27.818Z,6.20
2022-12-26T23:03:54.937Z,4.55
2022-12-26T23:06:27.140Z,3.72
2022-12-26T23:08:57.010Z,5.15
2022-12-26T23:11:30.330Z,3.70
2022-12-26T23:14:01.362Z,3.60
2022-12-26T23:16:52.548Z,4.82
2022-12-26T23:19:55.483Z,5.07
2022-12-26T23:22:22.466Z,3.17
2022-12-26T23:24:49.270Z,4.78
2022-12-26T23:27:34.731Z,6.65
2022-12-26T23:30:19.665Z,7.50
2022-12-26T23:32:52.568Z,6.45
2022-12-26T23:35:21.641Z,5.93
2022-12-26T23:37:48.551Z,6.72
2022-12-26T23:40:17.475Z,6.63
2022-12-26T23:42:44.543Z,8.00
2022-12-26T23:45:13.427Z,6.68
2022-12-26T23:47:42.418Z,8.43
2022-12-26T23:50:11.670Z,9.55
2022-12-26T23:52:38.841Z,8.75
2022-12-26T23:55:06.702Z,11.32
2022-12-26T23:57:33.799Z,9.68
